Time;durP1;ratioP1;P1;durP2;ratioP2;P2;SDS_P1;SDS_P2;PMS_P1;PMS_P2;Temp;Humidity;BMP_temperature;BMP_pressure;BME280_temperature;BME280_humidity;BME280_pressure;Samples;Min_cycle;Max_cycle;Signal;HPM_P1;HPM_P2
2023/06/14 00:00:31;;;;;;;8.60;6.73;;;15.50;71.70;;;;;;4990625;28;20934;-66
2023/06/14 00:02:58;;;;;;;7.27;6.57;;;15.30;69.50;;;;;;4991023;28;20470;-64
2023/06/14 00:05:24;;;;;;;7.07;6.47;;;15.20;71.50;;;;;;4988621;28;20176;-64
2023/06/14 00:07:53;;;;;;;6.97;6.37;;;15.00;75.50;;;;;;4979790;28;20438;-65
2023/06/14 00:10:18;;;;;;;6.70;6.20;;;15.20;74.10;;;;;;4989498;28;20179;-64
2023/06/14 00:12:44;;;;;;;8.03;7.33;;;15.20;75.10;;;;;;4987614;28;20510;-64
2023/06/14 00:15:10;;;;;;;8.40;6.60;;;15.20;78.20;;;;;;4990663;28;20242;-66
2023/06/14 00:17:36;;;;;;;6.70;6.00;;;15.50;69.70;;;;;;4984130;28;20425;-64
2023/06/14 00:20:05;;;;;;;7.17;6.53;;;15.60;69.50;;;;;;4976367;28;20176;-64
2023/06/14 00:22:31;;;;;;;7.40;6.50;;;15.50;70.70;;;;;;4991191;28;20490;-64
2023/06/14 00:24:57;;;;;;;6.90;6.40;;;15.40;69.20;;;;;;4994092;28;20556;-65
2023/06/14 00:27:22;;;;;;;6.30;5.80;;;15.30;72.00;;;;;;4988281;28;20194;-66
2023/06/14 00:29:48;;;;;;;7.27;6.57;;;15.40;71.30;;;;;;4984265;28;20183;-64
2023/06/14 00:32:13;;;;;;;6.73;6.23;;;15.30;72.90;;;;;;4989440;28;20645;-66
2023/06/14 00:34:39;;;;;;;7.03;6.43;;;15.30;72.20;;;;;;4992895;28;20611;-64
2023/06/14 00:37:04;;;;;;;7.67;6.70;;;15.30;72.10;;;;;;4984129;28;20259;-64
2023/06/14 00:39:30;;;;;;;7.47;6.77;;;15.30;72.40;;;;;;4983247;28;20192;-64
2023/06/14 00:41:55;;;;;;;6.00;5.60;;;15.30;71.10;;;;;;4989110;28;20243;-66
2023/06/14 00:44:21;;;;;;;6.73;6.23;;;15.20;74.00;;;;;;4994620;28;20219;-64
2023/06/14 00:46:47;;;;;;;8.30;7.50;;;15.10;75.50;;;;;;4993048;28;20230;-65
2023/06/14 00:49:17;;;;;;;7.53;6.83;;;15.10;76.00;;;;;;4985519;28;20194;-66
2023/06/14 00:51:42;;;;;;;8.70;7.90;;;15.10;74.30;;;;;;4993194;28;20985;-65
2023/06/14 00:54:09;;;;;;;7.00;5.80;;;15.10;73.30;;;;;;4992926;28;20552;-64
2023/06/14 00:56:38;;;;;;;8.20;6.47;;;15.00;77.50;;;;;;4988467;28;20266;-65
2023/06/14 00:59:04;;;;;;;7.43;6.80;;;15.00;79.20;;;;;;4985177;28;20831;-66
2023/06/14 01:01:32;;;;;;;8.30;6.90;;;15.00;80.40;;;;;;4978460;28;20431;-66
2023/06/14 01:03:58;;;;;;;8.20;7.50;;;14.80;84.90;;;;;;4986314;28;20274;-65
2023/06/14 01:06:53;;;;;;;7.23;6.63;;;14.80;84.70;;;;;;4984425;28;20447;-65
2023/06/14 01:09:45;;;;;;;7.53;6.87;;;14.80;82.10;;;;;;4990986;28;20435;-65
2023/06/14 01:12:17;;;;;;;7.53;6.63;;;14.70;84.80;;;;;;4988918;28;20964;-64
2023/06/14 01:14:43;;;;;;;7.30;6.60;;;14.70;85.20;;;;;;4991534;28;20938;-64
2023/06/14 01:17:16;;;;;;;7.97;7.37;;;14.70;85.00;;;;;;4977759;28;20435;-65
2023/06/14 01:19:44;;;;;;;7.10;6.23;;;14.70;85.30;;;;;;4990715;28;20426;-64
2023/06/14 01:22:10;;;;;;;6.97;6.37;;;14.60;88.00;;;;;;4992300;28;20492;-65
2023/06/14 01:24:36;;;;;;;7.80;7.17;;;14.50;89.50;;;;;;4991930;28;20898;-65
2023/06/14 01:27:02;;;;;;;7.50;6.80;;;14.60;89.60;;;;;;4983379;28;20470;-65
2023/06/14 01:29:32;;;;;;;7.63;6.90;;;14.60;90.30;;;;;;4988703;28;20183;-64
2023/06/14 01:31:59;;;;;;;8.17;7.47;;;14.60;89.90;;;;;;4990932;28;20434;-65
2023/06/14 01:34:25;;;;;;;6.93;6.43;;;14.40;92.00;;;;;;4989818;28;20501;-65
2023/06/14 01:36:51;;;;;;;7.57;6.87;;;14.40;92.20;;;;;;4989535;28;20431;-65
2023/06/14 01:39:17;;;;;;;7.17;6.60;;;14.30;93.00;;;;;;4986913;28;20672;-66
2023/06/14 01:41:45;;;;;;;7.77;7.07;;;14.20;94.80;;;;;;4992022;28;20431;-65
2023/06/14 01:44:13;;;;;;;6.83;6.23;;;14.20;94.30;;;;;;4992621;28;20294;-64
2023/06/14 01:46:40;;;;;;;8.13;7.43;;;14.20;94.50;;;;;;4989141;28;20435;-65
2023/06/14 01:49:06;;;;;;;6.27;5.70;;;14.20;94.80;;;;;;4985151;28;20462;-65
2023/06/14 01:51:31;;;;;;;7.20;6.57;;;14.20;95.90;;;;;;4992635;28;20438;-65
2023/06/14 01:53:57;;;;;;;7.57;6.87;;;14.00;97.00;;;;;;4990192;28;20226;-65
2023/06/14 01:56:23;;;;;;;7.47;6.80;;;13.90;98.80;;;;;;4989158;28;20601;-65
2023/06/14 01:58:49;;;;;;;7.20;6.50;;;13.80;99.90;;;;;;4989633;28;20555;-65
2023/06/14 02:01:16;;;;;;;15.10;6.70;;;13.90;99.90;;;;;;4979449;28;21019;-66
2023/06/14 02:03:42;;;;;;;6.83;6.23;;;13.90;99.90;;;;;;4980097;28;20839;-66
2023/06/14 02:06:07;;;;;;;7.20;6.33;;;14.00;99.10;;;;;;4985164;28;20928;-64
2023/06/14 02:08:33;;;;;;;7.67;7.00;;;14.10;98.00;;;;;;4991458;28;20441;-66
2023/06/14 02:10:58;;;;;;;7.97;6.70;;;14.10;97.70;;;;;;4991752;28;20270;-65
2023/06/14 02:13:24;;;;;;;7.57;6.87;;;14.00;98.90;;;;;;4990451;28;20592;-66
2023/06/14 02:15:54;;;;;;;8.60;7.10;;;14.00;99.90;;;;;;4979958;28;20192;-65
2023/06/14 02:18:20;;;;;;;7.03;6.33;;;13.80;99.90;;;;;;4987755;28;20212;-65
2023/06/14 02:20:45;;;;;;;7.20;6.50;;;13.70;99.90;;;;;;4984008;28;20442;-65
2023/06/14 02:23:11;;;;;;;8.27;6.60;;;13.60;99.90;;;;;;4991167;28;20477;-65
2023/06/14 02:25:36;;;;;;;11.47;6.60;;;13.70;99.90;;;;;;4984087;28;20176;-67
2023/06/14 02:28:02;;;;;;;7.00;6.40;;;13.70;99.90;;;;;;4991109;28;20168;-66
2023/06/14 02:30:28;;;;;;;7.13;6.30;;;13.80;99.90;;;;;;4991371;28;20262;-65
2023/06/14 02:32:53;;;;;;;6.63;6.03;;;13.80;99.90;;;;;;4988703;28;20187;-66
2023/06/14 02:35:20;;;;;;;7.53;6.90;;;13.80;99.90;;;;;;4984534;28;20192;-65
2023/06/14 02:37:46;;;;;;;6.80;6.20;;;13.70;99.90;;;;;;4987538;28;20206;-66
2023/06/14 02:40:12;;;;;;;7.80;6.67;;;13.70;99.90;;;;;;4991465;28;20833;-66
2023/06/14 02:42:37;;;;;;;7.80;7.20;;;13.60;99.90;;;;;;4987350;28;20630;-64
2023/06/14 02:45:04;;;;;;;8.13;7.43;;;13.60;99.90;;;;;;4986419;28;20517;-65
2023/06/14 02:47:29;;;;;;;6.77;6.27;;;13.60;99.90;;;;;;4991732;28;20172;-66
2023/06/14 02:49:55;;;;;;;7.27;6.57;;;13.60;99.90;;;;;;4990850;28;20477;-65
2023/06/14 02:52:21;;;;;;;8.10;7.40;;;13.50;99.90;;;;;;4990333;28;20258;-65
2023/06/14 02:54:47;;;;;;;8.40;6.27;;;13.40;99.90;;;;;;4979419;28;20202;-65
2023/06/14 02:57:12;;;;;;;7.10;6.40;;;13.30;99.90;;;;;;4990567;28;20434;-65
2023/06/14 02:59:38;;;;;;;9.60;6.67;;;13.30;99.90;;;;;;4988827;28;20179;-66
2023/06/14 03:02:04;;;;;;;8.23;7.63;;;13.20;99.90;;;;;;4984001;28;20176;-66
2023/06/14 03:04:34;;;;;;;7.47;6.73;;;13.10;99.90;;;;;;4982875;28;20230;-66
2023/06/14 03:07:02;;;;;;;8.07;6.60;;;13.20;99.90;;;;;;4989547;28;20184;-66
2023/06/14 03:09:28;;;;;;;6.90;6.30;;;13.10;99.90;;;;;;4994498;28;20449;-66
2023/06/14 03:11:54;;;;;;;9.83;7.23;;;13.30;99.90;;;;;;4984161;28;20913;-66
2023/06/14 03:14:21;;;;;;;6.90;6.20;;;13.30;99.90;;;;;;4974051;28;20463;-65
2023/06/14 03:16:46;;;;;;;9.10;6.40;;;13.30;99.90;;;;;;4989289;28;20194;-66
2023/06/14 03:19:12;;;;;;;10.63;7.10;;;13.30;99.90;;;;;;4987891;28;20947;-66
2023/06/14 03:21:38;;;;;;;7.33;6.63;;;13.20;99.90;;;;;;4984629;28;20250;-65
2023/06/14 03:24:04;;;;;;;7.30;6.70;;;13.10;99.90;;;;;;4985654;28;20215;-66
2023/06/14 03:26:31;;;;;;;8.10;6.80;;;12.90;99.90;;;;;;4990732;28;20430;-65
2023/06/14 03:28:56;;;;;;;7.33;6.63;;;12.90;99.90;;;;;;4989998;28;20215;-66
2023/06/14 03:31:23;;;;;;;7.00;6.40;;;12.90;99.90;;;;;;4985739;28;20897;-65
2023/06/14 03:33:49;;;;;;;10.97;6.60;;;12.70;99.90;;;;;;4983821;28;20206;-66
2023/06/14 03:36:14;;;;;;;7.37;6.70;;;12.70;99.90;;;;;;4989644;28;20832;-66
2023/06/14 03:38:40;;;;;;;7.67;6.90;;;12.80;99.90;;;;;;4988246;28;20250;-65
2023/06/14 03:41:05;;;;;;;6.80;6.10;;;12.80;99.90;;;;;;4981914;28;20267;-66
2023/06/14 03:43:31;;;;;;;6.87;6.37;;;12.90;99.90;;;;;;4987514;28;20222;-67
2023/06/14 03:45:57;;;;;;;7.43;6.73;;;12.90;99.90;;;;;;4991077;28;20195;-68
2023/06/14 03:48:22;;;;;;;6.23;5.70;;;12.90;99.90;;;;;;4992117;28;20203;-68
2023/06/14 03:50:47;;;;;;;9.23;7.20;;;12.90;99.90;;;;;;4990468;28;20653;-68
2023/06/14 03:53:13;;;;;;;6.47;5.90;;;13.00;99.90;;;;;;4991603;28;20211;-68
2023/06/14 03:55:39;;;;;;;7.23;6.53;;;13.10;99.90;;;;;;4994304;28;20191;-68
2023/06/14 03:58:05;;;;;;;6.87;6.27;;;13.20;99.90;;;;;;4995363;28;20214;-68
2023/06/14 04:00:31;;;;;;;9.17;8.30;;;13.40;99.90;;;;;;4994075;28;20184;-70
2023/06/14 04:02:57;;;;;;;8.03;6.80;;;13.50;99.90;;;;;;4999874;28;20184;-67
2023/06/14 04:05:26;;;;;;;7.30;6.60;;;13.50;99.90;;;;;;4994712;28;20434;-68
2023/06/14 04:07:52;;;;;;;7.70;7.10;;;13.50;99.90;;;;;;4992804;28;20179;-67
2023/06/14 04:10:17;;;;;;;7.83;7.17;;;13.60;99.90;;;;;;4998017;28;20450;-67
2023/06/14 04:12:43;;;;;;;8.47;7.63;;;13.60;99.90;;;;;;4994707;28;20647;-67
2023/06/14 04:15:09;;;;;;;8.30;7.17;;;13.80;99.90;;;;;;4993660;28;20211;-69
2023/06/14 04:17:36;;;;;;;7.73;6.93;;;13.80;99.90;;;;;;4992745;28;20588;-69
2023/06/14 04:20:05;;;;;;;7.80;7.10;;;13.90;99.90;;;;;;4993849;28;20446;-67
2023/06/14 04:22:31;;;;;;;8.53;7.50;;;14.00;99.90;;;;;;4993843;28;20442;-68
2023/06/14 04:24:56;;;;;;;8.20;7.30;;;14.00;99.90;;;;;;4994507;28;20468;-68
2023/06/14 04:27:27;;;;;;;8.00;7.30;;;14.10;99.90;;;;;;4993483;28;20630;-68
2023/06/14 04:29:56;;;;;;;8.23;7.30;;;14.40;99.90;;;;;;4981799;28;20192;-68
2023/06/14 04:32:26;;;;;;;7.03;6.43;;;14.60;99.90;;;;;;4994017;28;20546;-69
2023/06/14 04:34:55;;;;;;;8.57;7.90;;;14.80;99.90;;;;;;4994483;28;20501;-67
2023/06/14 04:37:22;;;;;;;7.60;6.90;;;15.00;99.90;;;;;;4991796;28;20560;-70
2023/06/14 04:39:48;;;;;;;8.20;7.40;;;15.00;99.90;;;;;;4991902;28;20431;-68
2023/06/14 04:42:16;;;;;;;7.50;6.77;;;15.20;99.90;;;;;;4994490;28;20497;-67
2023/06/14 04:44:43;;;;;;;7.87;6.97;;;15.30;99.90;;;;;;4992145;28;20918;-68
2023/06/14 04:47:12;;;;;;;7.77;7.00;;;15.50;99.90;;;;;;4987187;28;20861;-68
2023/06/14 04:49:38;;;;;;;6.83;6.30;;;15.50;99.90;;;;;;4990784;28;20438;-68
2023/06/14 04:52:04;;;;;;;7.50;6.90;;;15.60;99.90;;;;;;4994361;28;20445;-68
2023/06/14 04:54:31;;;;;;;7.77;7.10;;;15.60;99.90;;;;;;4993804;28;20206;-68
2023/06/14 04:56:57;;;;;;;10.83;8.30;;;15.80;99.90;;;;;;4989296;28;20851;-69
2023/06/14 04:59:25;;;;;;;8.03;7.10;;;15.90;99.90;;;;;;4987961;28;20479;-69
2023/06/14 05:01:53;;;;;;;9.10;8.20;;;16.10;99.90;;;;;;4991678;28;20271;-68
2023/06/14 05:04:19;;;;;;;10.40;9.40;;;16.30;99.90;;;;;;4990676;28;20767;-68
2023/06/14 05:06:45;;;;;;;9.10;8.30;;;16.40;99.90;;;;;;4991342;28;20549;-69
2023/06/14 05:09:18;;;;;;;8.23;7.50;;;16.50;99.90;;;;;;4988666;28;20450;-69
2023/06/14 05:11:43;;;;;;;7.87;7.27;;;16.70;99.90;;;;;;4999183;28;20503;-68
2023/06/14 05:14:13;;;;;;;8.57;7.77;;;16.80;99.90;;;;;;4975823;28;20494;-68
2023/06/14 05:16:39;;;;;;;8.47;7.77;;;17.00;99.90;;;;;;4992369;28;20492;-68
2023/06/14 05:19:05;;;;;;;8.30;7.43;;;17.10;99.90;;;;;;4991685;28;20458;-67
2023/06/14 05:21:33;;;;;;;8.30;7.60;;;17.30;99.90;;;;;;4997819;28;20434;-68
2023/06/14 05:23:59;;;;;;;8.10;7.50;;;17.50;99.90;;;;;;4996159;23;20232;-65
2023/06/14 05:26:28;;;;;;;7.80;7.20;;;17.60;99.60;;;;;;4973400;28;20431;-64
2023/06/14 05:28:56;;;;;;;9.80;6.90;;;17.70;98.00;;;;;;4971707;28;20456;-65
2023/06/14 05:31:23;;;;;;;8.80;8.10;;;17.90;98.10;;;;;;4973132;28;20439;-65
2023/06/14 05:33:48;;;;;;;8.30;7.60;;;18.00;97.20;;;;;;4973703;28;20998;-65
2023/06/14 05:36:14;;;;;;;8.03;7.33;;;18.10;96.20;;;;;;4956526;28;20475;-64
2023/06/14 05:38:39;;;;;;;12.80;8.10;;;18.20;95.70;;;;;;4957261;28;20244;-64
2023/06/14 05:41:05;;;;;;;10.20;9.20;;;18.40;96.10;;;;;;4960031;28;20221;-63
2023/06/14 05:43:31;;;;;;;10.90;8.40;;;18.50;93.60;;;;;;4956133;28;20642;-63
2023/06/14 05:45:57;;;;;;;8.60;7.97;;;18.60;92.50;;;;;;4952428;28;20193;-64
2023/06/14 05:48:22;;;;;;;8.23;7.47;;;18.70;91.60;;;;;;4950542;28;20459;-64
2023/06/14 05:50:48;;;;;;;8.20;7.60;;;18.80;91.20;;;;;;4952907;28;20232;-64
2023/06/14 05:53:13;;;;;;;11.17;7.93;;;18.90;91.90;;;;;;4958761;28;20188;-64
2023/06/14 05:55:39;;;;;;;8.17;7.53;;;19.10;91.10;;;;;;4953443;29;20555;-64
2023/06/14 05:58:04;;;;;;;9.27;8.00;;;19.10;90.20;;;;;;4954216;29;20208;-62
2023/06/14 06:00:30;;;;;;;8.80;7.90;;;19.20;90.10;;;;;;4962488;28;20253;-64
2023/06/14 06:02:57;;;;;;;8.03;7.37;;;19.30;90.00;;;;;;4947384;28;20674;-64
2023/06/14 06:05:23;;;;;;;8.20;7.40;;;19.40;89.10;;;;;;4960527;28;20204;-64
2023/06/14 06:07:49;;;;;;;8.00;6.70;;;19.50;88.10;;;;;;4972775;28;20774;-64
2023/06/14 06:10:15;;;;;;;8.33;7.43;;;19.60;87.10;;;;;;4955818;28;20440;-64
2023/06/14 06:12:41;;;;;;;7.93;7.30;;;19.70;86.80;;;;;;4941132;28;20182;-65
2023/06/14 06:15:07;;;;;;;8.40;7.37;;;19.70;86.50;;;;;;4935483;29;20575;-65
2023/06/14 06:17:33;;;;;;;7.40;6.70;;;19.90;85.40;;;;;;4935362;29;20457;-64
2023/06/14 06:19:58;;;;;;;13.03;8.03;;;20.00;85.40;;;;;;4952620;28;20185;-64
2023/06/14 06:22:24;;;;;;;7.90;7.10;;;20.20;84.30;;;;;;4967575;28;20713;-64
2023/06/14 06:24:50;;;;;;;9.43;7.93;;;20.30;84.00;;;;;;4959663;28;20590;-63
2023/06/14 06:27:15;;;;;;;7.33;6.73;;;20.30;83.00;;;;;;4954495;29;20204;-65
2023/06/14 06:29:43;;;;;;;7.50;6.80;;;20.50;81.10;;;;;;4961340;28;20188;-64
2023/06/14 06:32:08;;;;;;;8.03;7.43;;;20.60;80.60;;;;;;4966586;28;20172;-64
2023/06/14 06:34:35;;;;;;;9.43;8.17;;;20.70;79.60;;;;;;4961484;28;20507;-64
2023/06/14 06:37:01;;;;;;;11.10;8.30;;;20.80;77.70;;;;;;4954503;29;20614;-63
2023/06/14 06:39:26;;;;;;;7.37;6.83;;;20.80;77.40;;;;;;4953595;28;20472;-64
2023/06/14 06:41:52;;;;;;;8.57;7.77;;;20.90;75.90;;;;;;4962194;28;20179;-64
2023/06/14 06:44:17;;;;;;;7.63;7.03;;;21.10;74.50;;;;;;4954245;28;20231;-64
2023/06/14 06:46:43;;;;;;;7.83;7.23;;;21.20;72.40;;;;;;4954304;28;20185;-64
2023/06/14 06:49:11;;;;;;;7.03;6.47;;;21.30;72.10;;;;;;4957091;28;20199;-64
2023/06/14 06:51:37;;;;;;;9.07;6.90;;;21.40;71.30;;;;;;4965398;28;20519;-64
2023/06/14 06:54:03;;;;;;;6.83;6.23;;;21.50;70.50;;;;;;4973421;28;20538;-64
2023/06/14 06:56:28;;;;;;;8.33;7.33;;;21.70;68.60;;;;;;4973467;28;20177;-64
2023/06/14 06:58:54;;;;;;;7.53;6.90;;;21.80;67.80;;;;;;4966864;28;20239;-63
2023/06/14 07:01:19;;;;;;;9.73;8.10;;;21.80;66.00;;;;;;4950036;28;20176;-64
2023/06/14 07:03:45;;;;;;;8.83;6.40;;;21.80;65.80;;;;;;4941561;28;20673;-64
2023/06/14 07:06:11;;;;;;;7.43;6.83;;;21.90;65.90;;;;;;4947724;28;20190;-64
2023/06/14 07:08:38;;;;;;;7.37;6.87;;;21.90;65.20;;;;;;4947622;28;20543;-64
2023/06/14 07:11:05;;;;;;;7.23;6.33;;;22.10;64.70;;;;;;4963474;28;20546;-64
2023/06/14 07:13:31;;;;;;;7.10;6.40;;;22.00;63.60;;;;;;4953914;28;20444;-64
2023/06/14 07:15:59;;;;;;;7.90;7.20;;;22.20;63.60;;;;;;4953771;28;20432;-64
2023/06/14 07:18:25;;;;;;;8.77;7.47;;;22.30;64.70;;;;;;4938522;28;20820;-64
2023/06/14 07:20:51;;;;;;;7.30;6.60;;;22.30;64.00;;;;;;4963578;28;20428;-63
2023/06/14 07:23:17;;;;;;;7.77;7.07;;;22.40;64.30;;;;;;4973221;28;20552;-64
2023/06/14 07:25:43;;;;;;;7.90;7.30;;;22.60;64.40;;;;;;4972721;28;20432;-65
2023/06/14 07:28:08;;;;;;;9.77;7.20;;;22.50;64.40;;;;;;4947993;28;20251;-63
2023/06/14 07:30:35;;;;;;;7.67;6.87;;;22.50;62.70;;;;;;4961932;28;20600;-62
2023/06/14 07:33:00;;;;;;;7.70;6.90;;;22.50;63.80;;;;;;4976578;28;20226;-64
2023/06/14 07:35:25;;;;;;;7.97;7.07;;;22.60;63.30;;;;;;4976991;28;20475;-64
2023/06/14 07:37:51;;;;;;;7.73;6.93;;;22.90;62.90;;;;;;4976914;28;20613;-64
2023/06/14 07:40:17;;;;;;;8.10;7.50;;;23.10;61.50;;;;;;4963682;28;20176;-64
2023/06/14 07:42:42;;;;;;;7.10;6.60;;;23.10;61.40;;;;;;4965765;28;20176;-64
2023/06/14 07:45:08;;;;;;;7.40;6.80;;;23.00;61.70;;;;;;4970197;28;20258;-64
2023/06/14 07:47:34;;;;;;;7.50;6.90;;;23.20;62.20;;;;;;4937249;29;20220;-64
2023/06/14 07:49:59;;;;;;;8.47;7.70;;;23.40;59.80;;;;;;4951023;28;20534;-64
2023/06/14 07:52:25;;;;;;;8.43;6.83;;;23.40;59.40;;;;;;4953391;28;20181;-64
2023/06/14 07:54:51;;;;;;;7.57;6.97;;;23.40;59.20;;;;;;4960159;28;20690;-64
2023/06/14 07:57:16;;;;;;;8.20;7.40;;;23.60;59.50;;;;;;4976392;28;20319;-64
2023/06/14 07:59:42;;;;;;;7.43;6.57;;;23.70;59.10;;;;;;4960779;28;20647;-64
2023/06/14 08:02:07;;;;;;;7.47;6.83;;;23.70;59.30;;;;;;4964397;28;20176;-64
2023/06/14 08:04:33;;;;;;;8.37;7.73;;;23.90;58.70;;;;;;4957013;28;20287;-64
2023/06/14 08:06:59;;;;;;;7.03;6.37;;;24.00;58.00;;;;;;4957195;28;20177;-64
2023/06/14 08:09:25;;;;;;;9.93;6.60;;;24.20;57.90;;;;;;4961726;28;20554;-64
2023/06/14 08:11:51;;;;;;;7.33;6.63;;;24.10;56.20;;;;;;4968136;28;20423;-64
2023/06/14 08:14:16;;;;;;;6.37;5.90;;;24.20;56.20;;;;;;4975957;28;20203;-64
2023/06/14 08:16:42;;;;;;;7.30;6.60;;;24.30;56.10;;;;;;4976127;28;20634;-65
2023/06/14 08:19:08;;;;;;;7.30;6.60;;;24.20;55.20;;;;;;4971316;28;20242;-64
2023/06/14 08:21:33;;;;;;;7.93;7.13;;;24.40;55.10;;;;;;4956373;28;20189;-64
2023/06/14 08:24:00;;;;;;;7.53;6.83;;;24.50;55.50;;;;;;4975233;28;20216;-64
2023/06/14 08:26:28;;;;;;;7.57;6.73;;;24.60;55.70;;;;;;4975983;28;20176;-64
2023/06/14 08:28:54;;;;;;;12.37;7.40;;;24.70;55.50;;;;;;4970904;28;20522;-64
2023/06/14 08:31:20;;;;;;;7.73;6.87;;;24.60;56.00;;;;;;4967682;28;20469;-64
2023/06/14 08:33:46;;;;;;;7.50;6.80;;;24.60;55.00;;;;;;4975850;28;20968;-64
2023/06/14 08:36:12;;;;;;;7.97;7.17;;;24.40;55.70;;;;;;4975843;28;20442;-64
2023/06/14 08:38:38;;;;;;;9.80;6.97;;;24.50;55.50;;;;;;4971993;28;20259;-65
2023/06/14 08:41:08;;;;;;;9.90;7.20;;;24.50;55.60;;;;;;4956282;28;20865;-64
2023/06/14 08:43:34;;;;;;;7.23;6.63;;;24.70;55.90;;;;;;4944020;28;20437;-64
2023/06/14 08:46:04;;;;;;;7.03;6.30;;;25.00;55.20;;;;;;4938631;29;20436;-63
2023/06/14 08:48:32;;;;;;;7.13;6.10;;;25.10;55.60;;;;;;4937644;29;20469;-64
2023/06/14 08:51:03;;;;;;;8.83;8.10;;;25.20;54.50;;;;;;4966618;28;20523;-65
2023/06/14 08:53:31;;;;;;;6.97;6.37;;;25.20;54.90;;;;;;4975513;28;21169;-64
2023/06/14 08:56:04;;;;;;;6.60;6.00;;;25.20;55.10;;;;;;4975460;28;20842;-64
2023/06/14 08:58:31;;;;;;;11.70;6.90;;;25.40;55.20;;;;;;4972810;28;20466;-64
2023/06/14 09:00:58;;;;;;;9.43;7.20;;;25.30;55.00;;;;;;4966507;28;20432;-64
2023/06/14 09:03:29;;;;;;;7.70;7.10;;;25.30;55.40;;;;;;4975060;28;20427;-63
2023/06/14 09:06:01;;;;;;;12.80;6.37;;;25.50;55.30;;;;;;4975362;28;20416;-64
2023/06/14 09:08:31;;;;;;;8.70;7.57;;;25.90;54.20;;;;;;4973166;28;20430;-64
2023/06/14 09:10:57;;;;;;;8.67;7.87;;;26.10;53.80;;;;;;4963713;28;20956;-64
2023/06/14 09:13:22;;;;;;;8.23;7.53;;;26.10;53.20;;;;;;4955838;28;20439;-64
2023/06/14 09:15:48;;;;;;;7.93;7.13;;;26.20;53.60;;;;;;4955898;28;20505;-64
2023/06/14 09:18:13;;;;;;;8.57;7.00;;;26.00;54.30;;;;;;4955407;28;20279;-64
2023/06/14 09:20:40;;;;;;;10.40;7.30;;;26.10;54.40;;;;;;4960176;28;20192;-65
2023/06/14 09:23:06;;;;;;;7.13;6.50;;;26.30;52.90;;;;;;4966746;28;20594;-64
2023/06/14 09:25:33;;;;;;;8.40;7.33;;;26.40;53.00;;;;;;4974633;28;20467;-64
2023/06/14 09:27:58;;;;;;;8.07;6.50;;;26.50;53.00;;;;;;4967045;28;20440;-64
2023/06/14 09:30:24;;;;;;;10.07;6.90;;;26.40;52.90;;;;;;4949531;28;20510;-64
2023/06/14 09:32:50;;;;;;;8.07;7.20;;;26.70;52.60;;;;;;4952737;28;20709;-65
2023/06/14 09:35:17;;;;;;;14.47;6.83;;;26.90;50.70;;;;;;4939402;29;20609;-64
2023/06/14 09:37:43;;;;;;;7.23;6.53;;;27.10;50.60;;;;;;4948289;29;20471;-65
2023/06/14 09:40:09;;;;;;;7.20;6.60;;;27.30;49.90;;;;;;4947482;28;20445;-64
2023/06/14 09:42:36;;;;;;;7.23;6.60;;;27.50;49.20;;;;;;4951382;28;20553;-64
2023/06/14 09:45:02;;;;;;;7.80;7.20;;;27.80;48.60;;;;;;4955232;28;20456;-65
2023/06/14 09:47:28;;;;;;;9.03;6.77;;;28.10;48.90;;;;;;4955313;29;20420;-66
2023/06/14 09:49:55;;;;;;;8.27;7.50;;;28.60;48.30;;;;;;4951826;28;20834;-66
2023/06/14 09:52:22;;;;;;;9.27;6.53;;;28.80;47.40;;;;;;4955662;28;20178;-68
2023/06/14 09:54:52;;;;;;;9.87;6.90;;;29.50;46.90;;;;;;4956773;28;20483;-66
2023/06/14 09:57:21;;;;;;;7.47;6.87;;;29.50;45.50;;;;;;4974406;28;20839;-66
2023/06/14 09:59:51;;;;;;;7.27;6.67;;;30.10;45.50;;;;;;4963432;28;21042;-66
2023/06/14 10:02:28;;;;;;;6.23;5.73;;;30.60;44.00;;;;;;4956206;28;20519;-66
2023/06/14 10:05:03;;;;;;;9.47;6.80;;;31.10;41.20;;;;;;4964749;28;20498;-66
2023/06/14 10:07:32;;;;;;;6.90;6.33;;;31.50;38.90;;;;;;4974571;28;20408;-66
2023/06/14 10:09:59;;;;;;;6.63;6.03;;;32.50;38.60;;;;;;4964878;28;20478;-66
2023/06/14 10:12:25;;;;;;;6.90;6.30;;;32.40;36.40;;;;;;4966054;28;20416;-66
2023/06/14 10:14:53;;;;;;;6.33;5.73;;;32.70;37.20;;;;;;4974158;28;20449;-66
2023/06/14 10:17:33;;;;;;;6.97;5.87;;;33.30;35.20;;;;;;4973989;28;20415;-66
2023/06/14 10:20:19;;;;;;;5.83;5.33;;;33.40;33.20;;;;;;4962440;28;20452;-66
2023/06/14 10:22:51;;;;;;;9.30;6.77;;;33.50;32.40;;;;;;4961707;28;20928;-66
2023/06/14 10:25:34;;;;;;;9.10;6.30;;;33.30;32.00;;;;;;4967078;28;20462;-66
2023/06/14 10:28:19;;;;;;;7.47;5.37;;;34.10;31.20;;;;;;4973983;28;20439;-66
2023/06/14 10:31:09;;;;;;;6.60;6.07;;;35.50;30.80;;;;;;4957620;28;20440;-66
2023/06/14 10:33:38;;;;;;;6.87;6.37;;;35.70;29.50;;;;;;4965685;28;20454;-66
2023/06/14 10:36:34;;;;;;;6.13;5.67;;;35.50;28.40;;;;;;4963510;28;20517;-66
2023/06/14 10:39:05;;;;;;;6.80;6.30;;;33.90;28.40;;;;;;4945149;29;20978;-66
2023/06/14 10:41:35;;;;;;;6.73;6.23;;;32.70;29.80;;;;;;4954321;28;20432;-66
2023/06/14 10:44:13;;;;;;;8.20;6.33;;;32.90;30.00;;;;;;4973119;28;20446;-66
2023/06/14 10:46:40;;;;;;;7.43;6.60;;;33.80;29.60;;;;;;4973626;28;20447;-66
2023/06/14 10:49:06;;;;;;;6.93;6.07;;;35.40;29.50;;;;;;4970388;28;20431;-63
2023/06/14 10:51:48;;;;;;;7.33;6.63;;;36.70;30.00;;;;;;4962435;28;20463;-64
2023/06/14 10:54:14;;;;;;;6.43;5.93;;;36.90;28.60;;;;;;4935825;29;20441;-64
2023/06/14 10:56:50;;;;;;;7.23;6.60;;;38.20;28.20;;;;;;4941020;29;20429;-64
2023/06/14 10:59:19;;;;;;;7.90;6.33;;;37.60;27.80;;;;;;4953806;29;20486;-64
2023/06/14 11:02:00;;;;;;;7.00;6.50;;;35.50;28.30;;;;;;4950250;29;20953;-64
2023/06/14 11:04:48;;;;;;;7.27;6.57;;;33.50;28.70;;;;;;4950984;29;20448;-64
2023/06/14 11:07:43;;;;;;;6.67;6.07;;;33.10;29.90;;;;;;4955131;28;20477;-64
2023/06/14 11:10:11;;;;;;;6.73;6.20;;;35.10;29.40;;;;;;4954938;28;20443;-64
2023/06/14 11:12:38;;;;;;;8.17;6.93;;;37.00;28.70;;;;;;4959559;28;20523;-65
2023/06/14 11:15:05;;;;;;;6.90;6.40;;;38.00;28.60;;;;;;4959219;28;20606;-65
2023/06/14 11:17:32;;;;;;;7.00;6.60;;;39.50;36.80;;;;;;4937759;28;20490;-66
2023/06/14 11:20:11;;;;;;;8.37;6.77;;;40.50;37.40;;;;;;4942090;28;20444;-66
2023/06/14 11:22:41;;;;;;;6.20;5.80;;;40.70;37.00;;;;;;4953754;28;20440;-65
2023/06/14 11:25:09;;;;;;;6.47;5.97;;;39.60;36.80;;;;;;4971020;23;20587;-68
2023/06/14 11:27:35;;;;;;;7.47;6.90;;;38.30;36.20;;;;;;4953576;29;20821;-68
2023/06/14 11:30:01;;;;;;;7.03;6.50;;;36.00;37.30;;;;;;4952643;29;20453;-68
2023/06/14 11:32:26;;;;;;;7.13;5.30;;;33.80;39.10;;;;;;4953524;29;20184;-68
2023/06/14 11:34:52;;;;;;;8.20;6.00;;;32.00;40.30;;;;;;4953737;28;20196;-70
2023/06/14 11:37:18;;;;;;;7.33;6.30;;;31.00;41.60;;;;;;4953693;29;20255;-70
2023/06/14 11:39:45;;;;;;;7.90;6.90;;;29.20;42.90;;;;;;4952789;29;20211;-71
2023/06/14 11:42:15;;;;;;;7.33;6.20;;;29.50;42.90;;;;;;4953700;29;20180;-67
2023/06/14 11:44:40;;;;;;;5.80;5.27;;;29.50;42.60;;;;;;4953737;28;20440;-68
2023/06/14 11:47:06;;;;;;;7.03;6.47;;;29.50;42.50;;;;;;4953671;29;20417;-68
2023/06/14 11:49:36;;;;;;;6.67;5.57;;;29.40;41.40;;;;;;4953277;29;20673;-68
2023/06/14 11:52:02;;;;;;;6.20;5.70;;;30.80;41.20;;;;;;4953098;29;20606;-69
2023/06/14 11:54:27;;;;;;;6.00;5.60;;;34.00;38.50;;;;;;4953074;28;20531;-68
2023/06/14 11:56:53;;;;;;;6.33;5.73;;;35.40;38.00;;;;;;4953361;29;20188;-69
2023/06/14 11:59:20;;;;;;;5.20;4.90;;;36.50;36.40;;;;;;4954357;28;20736;-68
2023/06/14 12:01:47;;;;;;;5.67;5.27;;;38.30;36.10;;;;;;4953616;28;20173;-68
2023/06/14 12:04:13;;;;;;;6.10;5.57;;;37.80;35.00;;;;;;4952038;28;20460;-69
2023/06/14 12:06:39;;;;;;;6.30;5.90;;;36.70;35.50;;;;;;4953519;29;20480;-67
2023/06/14 12:09:18;;;;;;;7.20;6.30;;;37.20;34.80;;;;;;4953305;29;20173;-68
2023/06/14 12:11:43;;;;;;;6.00;5.60;;;38.50;34.60;;;;;;4946913;28;20519;-68
2023/06/14 12:14:09;;;;;;;6.20;5.60;;;40.00;33.50;;;;;;4953148;28;20535;-68
2023/06/14 12:16:37;;;;;;;5.87;5.37;;;41.00;31.20;;;;;;4954253;28;20188;-68
2023/06/14 12:19:16;;;;;;;6.10;5.70;;;39.10;30.40;;;;;;4956336;29;20495;-68
2023/06/14 12:21:47;;;;;;;5.00;4.70;;;40.70;30.40;;;;;;4956714;29;20476;-68
2023/06/14 12:24:12;;;;;;;6.20;5.80;;;42.00;29.80;;;;;;4955027;28;20472;-69
2023/06/14 12:26:40;;;;;;;6.40;6.00;;;42.10;29.40;;;;;;4942017;29;20856;-67
2023/06/14 12:29:07;;;;;;;6.37;5.87;;;42.60;29.00;;;;;;4956567;28;20522;-69
2023/06/14 12:31:32;;;;;;;5.97;5.47;;;42.00;28.50;;;;;;4954208;28;20451;-69
2023/06/14 12:33:59;;;;;;;5.87;5.47;;;42.50;28.30;;;;;;4956701;29;20995;-68
2023/06/14 12:36:25;;;;;;;5.67;5.07;;;42.00;27.70;;;;;;4955896;29;20275;-68
2023/06/14 12:38:53;;;;;;;6.00;5.37;;;38.40;29.20;;;;;;4955557;29;20456;-68
2023/06/14 12:41:21;;;;;;;6.30;5.70;;;38.90;28.80;;;;;;4961766;28;20459;-68
2023/06/14 12:43:46;;;;;;;6.03;5.53;;;38.50;29.20;;;;;;4974129;28;20795;-68
2023/06/14 12:46:12;;;;;;;6.87;5.40;;;37.60;29.50;;;;;;4975917;28;20430;-68